createdAt,value
2023-12-24T00:03:25.667Z,8.74
2023-12-24T00:08:29.898Z,8.75
2023-12-24T00:13:32.942Z,8.72
2023-12-24T00:18:34.807Z,8.74
2023-12-24T00:23:36.462Z,8.80
2023-12-24T00:28:38.036Z,8.79
2023-12-24T00:33:39.753Z,8.81
2023-12-24T00:38:41.407Z,8.78
2023-12-24T00:43:43.246Z,8.63
2023-12-24T00:48:44.958Z,8.43
2023-12-24T00:53:46.554Z,8.37
2023-12-24T00:58:48.081Z,8.35
2023-12-24T01:03:49.617Z,8.34
2023-12-24T01:08:51.174Z,8.34
2023-12-24T01:13:52.720Z,8.36
2023-12-24T01:18:54.354Z,8.33
2023-12-24T01:23:55.962Z,8.31
2023-12-24T01:28:57.577Z,8.30
2023-12-24T01:33:59.291Z,8.33
2023-12-24T01:39:00.953Z,8.39
2023-12-24T01:44:02.953Z,8.33
2023-12-24T01:49:05.096Z,8.28
2023-12-24T01:54:09.572Z,8.35
2023-12-24T01:59:14.618Z,8.45
2023-12-24T02:04:17.289Z,8.44
2023-12-24T02:09:18.809Z,8.38
2023-12-24T02:14:20.398Z,8.32
2023-12-24T02:19:22.168Z,8.33
2023-12-24T02:24:23.895Z,8.34
2023-12-24T02:29:31.355Z,8.30
2023-12-24T02:34:34.302Z,8.24
2023-12-24T02:39:43.252Z,8.27
2023-12-24T02:44:45.182Z,8.35
2023-12-24T02:49:46.824Z,8.31
2023-12-24T02:54:48.363Z,8.26
2023-12-24T02:59:50.011Z,8.26
2023-12-24T03:04:51.598Z,8.33
2023-12-24T03:09:53.183Z,8.38
2023-12-24T03:14:55.091Z,8.28
2023-12-24T03:19:56.732Z,8.25
2023-12-24T03:24:58.273Z,8.28
2023-12-24T03:29:59.842Z,8.34
2023-12-24T03:35:01.387Z,8.34
2023-12-24T03:40:02.943Z,8.30
2023-12-24T03:45:04.866Z,8.34
2023-12-24T03:50:06.762Z,8.38
2023-12-24T03:55:09.280Z,8.41
2023-12-24T04:00:11.285Z,8.40
2023-12-24T04:05:13.922Z,8.40
2023-12-24T04:10:15.552Z,8.46
2023-12-24T04:15:17.081Z,8.55
2023-12-24T04:20:18.820Z,8.55
2023-12-24T04:25:20.972Z,8.50
2023-12-24T04:30:22.546Z,8.55
2023-12-24T04:35:24.166Z,8.66
2023-12-24T04:40:25.817Z,8.66
2023-12-24T04:45:27.408Z,8.62
2023-12-24T04:50:29.044Z,8.72
2023-12-24T04:55:30.595Z,8.80
2023-12-24T05:00:32.200Z,8.85
2023-12-24T05:05:33.840Z,8.92
2023-12-24T05:10:35.412Z,8.90
2023-12-24T05:15:36.929Z,9.02
2023-12-24T05:20:38.500Z,9.06
2023-12-24T05:25:40.096Z,9.06
2023-12-24T05:30:41.701Z,9.04
2023-12-24T05:35:43.326Z,9.13
2023-12-24T05:40:44.987Z,9.20
2023-12-24T05:45:47.311Z,9.22
2023-12-24T05:50:48.957Z,9.18
2023-12-24T05:55:50.541Z,9.17
2023-12-24T06:00:52.540Z,9.27
2023-12-24T06:05:54.237Z,9.30
2023-12-24T06:10:55.947Z,9.30
2023-12-24T06:15:57.564Z,9.36
2023-12-24T06:20:59.343Z,9.41
2023-12-24T06:26:01.024Z,9.41
2023-12-24T06:31:02.901Z,9.40
2023-12-24T06:36:05.803Z,9.40
2023-12-24T06:41:07.425Z,9.46
2023-12-24T06:46:13.242Z,9.55
2023-12-24T06:51:15.081Z,9.58
2023-12-24T06:56:16.651Z,9.56
2023-12-24T07:01:18.202Z,9.57
2023-12-24T07:06:19.851Z,9.68
2023-12-24T07:11:21.417Z,9.69
2023-12-24T07:16:24.739Z,9.64
2023-12-24T07:21:26.365Z,9.65
2023-12-24T07:26:27.944Z,9.65
2023-12-24T07:31:29.523Z,9.71
2023-12-24T07:36:31.100Z,9.63
2023-12-24T07:41:32.858Z,9.70
2023-12-24T07:46:34.540Z,9.75
2023-12-24T07:51:36.074Z,9.79
2023-12-24T07:56:37.783Z,9.77
2023-12-24T08:01:39.447Z,9.71
2023-12-24T08:06:41.243Z,9.76
2023-12-24T08:11:42.849Z,9.85
2023-12-24T08:16:44.419Z,9.84
2023-12-24T08:21:45.996Z,9.84
2023-12-24T08:26:47.622Z,9.84
2023-12-24T08:31:49.158Z,9.86
2023-12-24T08:36:50.878Z,9.93
2023-12-24T08:41:52.481Z,9.93
2023-12-24T08:46:54.023Z,9.92
2023-12-24T08:51:55.723Z,9.96
2023-12-24T08:56:57.392Z,10.00
2023-12-24T09:01:58.995Z,10.10
2023-12-24T09:07:00.571Z,10.16
2023-12-24T09:12:02.502Z,10.19
2023-12-24T09:17:04.437Z,10.19
2023-12-24T09:22:06.006Z,10.16
2023-12-24T09:27:07.623Z,10.23
2023-12-24T09:32:09.320Z,10.20
2023-12-24T09:37:10.872Z,10.26
2023-12-24T09:42:12.505Z,10.28
2023-12-24T09:47:14.113Z,10.32
2023-12-24T09:52:16.149Z,10.31
2023-12-24T09:57:17.737Z,10.32
2023-12-24T10:02:19.357Z,10.43
2023-12-24T10:07:20.931Z,10.43
2023-12-24T10:12:22.685Z,10.57
2023-12-24T10:17:35.725Z,10.54
2023-12-24T10:22:37.837Z,10.57
2023-12-24T10:27:39.367Z,10.54
2023-12-24T10:32:43.352Z,10.50
2023-12-24T10:37:45.179Z,10.48
2023-12-24T10:42:48.980Z,10.36
2023-12-24T10:47:50.686Z,10.26
2023-12-24T10:52:54.097Z,10.20
2023-12-24T10:58:32.791Z,10.19
2023-12-24T11:03:51.100Z,10.31
2023-12-24T11:08:52.941Z,10.26
2023-12-24T11:13:54.484Z,10.30
2023-12-24T11:18:58.177Z,10.37
2023-12-24T11:24:15.983Z,10.57
2023-12-24T11:29:42.415Z,10.59
2023-12-24T11:34:44.172Z,10.53
2023-12-24T11:40:09.609Z,10.57
2023-12-24T11:45:24.592Z,10.63
2023-12-24T11:50:26.532Z,10.62
2023-12-24T11:55:29.593Z,10.58
2023-12-24T12:00:31.487Z,10.58
2023-12-24T12:05:33.338Z,10.63
2023-12-24T12:10:35.169Z,10.65
2023-12-24T12:15:36.831Z,10.60
2023-12-24T12:20:39.813Z,10.60
2023-12-24T12:25:41.474Z,10.57
2023-12-24T12:30:43.231Z,10.59
2023-12-24T12:35:44.943Z,10.61
2023-12-24T12:40:49.304Z,10.50
2023-12-24T12:45:53.146Z,10.44
2023-12-24T12:50:55.656Z,10.45
2023-12-24T12:56:08.966Z,10.53
2023-12-24T13:01:11.037Z,10.50
2023-12-24T13:06:13.255Z,10.35
2023-12-24T13:11:15.041Z,10.32
2023-12-24T13:16:22.388Z,10.22
2023-12-24T13:21:23.926Z,10.15
2023-12-24T13:26:26.728Z,10.30
2023-12-24T13:31:28.351Z,10.33
2023-12-24T13:36:30.122Z,10.30
2023-12-24T13:41:34.651Z,10.33
2023-12-24T13:46:38.225Z,10.40
2023-12-24T13:51:40.090Z,10.36
2023-12-24T13:56:41.722Z,10.42
2023-12-24T14:01:43.411Z,10.47
2023-12-24T14:06:45.108Z,10.43
2023-12-24T14:11:46.676Z,10.48
2023-12-24T14:16:49.526Z,10.42
2023-12-24T14:21:51.095Z,10.45
2023-12-24T14:26:52.620Z,10.43
2023-12-24T14:31:54.146Z,10.45
2023-12-24T14:36:55.657Z,10.46
2023-12-24T14:41:57.322Z,10.42
2023-12-24T14:46:58.838Z,10.41
2023-12-24T14:52:00.507Z,10.45
2023-12-24T14:57:02.231Z,10.41
2023-12-24T15:02:04.096Z,10.40
2023-12-24T15:07:07.047Z,10.41
2023-12-24T15:12:08.790Z,10.42
2023-12-24T15:17:11.887Z,10.42
2023-12-24T15:22:21.418Z,10.45
2023-12-24T15:27:22.985Z,10.45
2023-12-24T15:32:26.262Z,10.43
2023-12-24T15:37:34.506Z,10.50
2023-12-24T15:42:36.605Z,10.52
2023-12-24T15:47:38.592Z,10.54
2023-12-24T15:52:40.182Z,10.54
2023-12-24T15:57:41.759Z,10.73
2023-12-24T16:02:45.258Z,10.76
2023-12-24T16:07:46.807Z,10.84
2023-12-24T16:12:48.384Z,10.85
2023-12-24T16:17:50.056Z,10.83
2023-12-24T16:22:51.865Z,10.82
2023-12-24T16:27:53.821Z,10.85
2023-12-24T16:32:55.964Z,10.86
2023-12-24T16:37:57.700Z,10.84
2023-12-24T16:42:59.538Z,10.84
2023-12-24T16:48:02.129Z,10.87
2023-12-24T16:53:03.923Z,10.88
2023-12-24T16:58:05.538Z,10.89
2023-12-24T17:03:08.144Z,10.88
2023-12-24T17:08:09.916Z,10.85
2023-12-24T17:13:11.505Z,10.84
2023-12-24T17:18:13.755Z,10.89
2023-12-24T17:23:15.528Z,10.89
2023-12-24T17:28:17.194Z,10.76
2023-12-24T17:33:19.012Z,10.70
2023-12-24T17:38:20.739Z,10.74
2023-12-24T17:43:22.725Z,10.69
2023-12-24T17:48:24.486Z,10.71
2023-12-24T17:53:26.214Z,10.69
2023-12-24T17:58:27.822Z,10.66
2023-12-24T18:03:29.371Z,10.62
2023-12-24T18:08:30.975Z,10.60
2023-12-24T18:13:32.707Z,10.66
2023-12-24T18:18:34.450Z,10.65
2023-12-24T18:23:36.132Z,10.68
2023-12-24T18:28:37.700Z,10.61
2023-12-24T18:33:39.500Z,10.68
2023-12-24T18:43:43.879Z,10.85
2023-12-24T18:48:46.296Z,10.89
2023-12-24T18:53:51.732Z,10.90
2023-12-24T18:58:55.150Z,10.95
2023-12-24T19:03:57.161Z,10.98
2023-12-24T19:08:59.755Z,10.92
2023-12-24T19:14:02.447Z,11.02
2023-12-24T19:19:04.586Z,11.00
2023-12-24T19:24:06.202Z,11.07
2023-12-24T19:29:12.509Z,11.02
2023-12-24T19:34:15.022Z,11.02
2023-12-24T19:39:17.035Z,11.06
2023-12-24T19:44:18.652Z,11.06
2023-12-24T19:49:20.767Z,11.04
2023-12-24T19:54:22.507Z,11.02
2023-12-24T19:59:24.134Z,10.95
2023-12-24T20:04:25.767Z,10.84
2023-12-24T20:09:27.295Z,10.81
2023-12-24T20:14:29.038Z,10.78
2023-12-24T20:19:30.700Z,10.76
2023-12-24T20:24:34.010Z,10.88
2023-12-24T20:29:35.808Z,10.92
2023-12-24T20:34:37.541Z,10.88
2023-12-24T20:39:39.168Z,10.84
2023-12-24T20:44:41.093Z,10.75
2023-12-24T20:49:42.849Z,10.78
2023-12-24T20:54:45.997Z,10.74
2023-12-24T20:59:49.115Z,10.76
2023-12-24T21:04:51.247Z,10.78
2023-12-24T21:09:53.528Z,10.80
2023-12-24T21:14:55.124Z,10.81
2023-12-24T21:19:56.829Z,10.85
2023-12-24T21:24:58.379Z,10.86
2023-12-24T21:30:00.001Z,10.88
2023-12-24T21:35:02.605Z,10.89
2023-12-24T21:40:05.823Z,10.90
2023-12-24T21:45:08.425Z,10.85
2023-12-24T21:50:10.227Z,10.89
2023-12-24T21:55:11.792Z,10.89
2023-12-24T22:00:13.560Z,10.88
2023-12-24T22:05:16.900Z,10.89
2023-12-24T22:10:19.147Z,10.85
2023-12-24T22:15:20.716Z,10.86
2023-12-24T22:20:22.428Z,10.86
2023-12-24T22:25:24.019Z,10.82
2023-12-24T22:30:26.256Z,10.85
2023-12-24T22:35:28.846Z,10.81
2023-12-24T22:40:30.400Z,10.77
2023-12-24T22:45:33.723Z,10.77
2023-12-24T22:50:36.340Z,10.86
2023-12-24T22:55:38.689Z,10.86
2023-12-24T23:00:40.267Z,10.84
2023-12-24T23:05:43.898Z,10.77
2023-12-24T23:10:45.709Z,10.81
2023-12-24T23:15:47.267Z,10.80
2023-12-24T23:20:49.014Z,10.70
2023-12-24T23:25:51.092Z,10.74
2023-12-24T23:30:52.782Z,10.76
2023-12-24T23:36:05.409Z,10.75
2023-12-24T23:41:13.550Z,10.76
2023-12-24T23:46:15.385Z,10.70
2023-12-24T23:51:16.988Z,10.68
2023-12-24T23:56:18.663Z,10.60
